Aviation Digital Data Service (ADDS)

Output produced by TAFs form (1131 UTC 29 May 2017)
found at http://www.aviationweather.gov/adds/tafs/
 
KCWA 290520Z 2906/3006 25007KT P6SM VCSH SCT060 BKN100 
     TEMPO 2910/2912 BKN040 
     FM291200 27010KT P6SM BKN025 OVC040 
     FM291500 27015G25KT P6SM VCSH BKN020 OVC035 
     FM300200 28010KT P6SM BKN015 OVC035 AMD LTD TO CLD VIS AND WIND TIL 291100
       
KATW 290520Z 2906/3006 25008KT P6SM SCT070 BKN100 
     FM291500 26016G26KT P6SM VCSH BKN040 
     FM300200 26012KT P6SM VCSH BKN035 BKN070
       
KGRB 291057Z 2911/3006 25007KT P6SM SCT070 BKN100 
     TEMPO 2911/2912 4SM -SHRA BKN050 
     FM291500 26014G24KT P6SM VCSH BKN045 
     FM300200 26010KT P6SM VCSH BKN035 BKN070
       
KMSN 291120Z 2912/3012 25006KT P6SM SCT110 
     FM291600 27014G24KT P6SM BKN060 
     FM292000 27016G24KT P6SM VCSH BKN060 
     FM300100 27009KT P6SM BKN060 
     FM300500 27006KT P6SM SCT070
       
KMKE 291120Z 2912/3018 23009KT P6SM VCSH BKN110 
     FM291500 26013G23KT P6SM SCT110 
     FM292100 27016G25KT P6SM VCSH BKN060 
     FM300000 26012KT P6SM SCT060 
     FM300200 26009KT P6SM SCT060 
     FM301700 26013G23KT P6SM BKN080